Terminal Aerodrome Forecast
Issued by NWS

Home | Current Version | Previous Version | Text Only | Print | Product List | Glossary On
Versions: 1 2 3 4 5 6 7 8 9 10 11 12 13 14 15 16 17 18
000
FTUS45 KBOI 241954 AAA
TAFMYL
TAF AMD
KMYL 241954Z 2420/2518 VRB03KT P6SM -RA BKN005 OVC025
     FM242200 17006KT P6SM VCSH FEW005 SCT025 BKN060
     FM250100 VRB03KT P6SM FEW060 SCT100=

USA.gov is the U.S. government's official web portal to all federal, state and local government web resources and services.